createdAt,value
2022-11-17T00:00:01.389Z,14.65
2022-11-17T00:02:29.878Z,14.85
2022-11-17T00:04:58.313Z,16.83
2022-11-17T00:07:28.159Z,12.73
2022-11-17T00:09:56.572Z,11.50
2022-11-17T00:12:42.621Z,11.93
2022-11-17T00:15:11.135Z,12.32
2022-11-17T00:17:39.649Z,10.32
2022-11-17T00:20:26.584Z,9.85
2022-11-17T00:22:56.342Z,8.60
2022-11-17T00:25:25.042Z,10.40
2022-11-17T00:27:53.419Z,7.97
2022-11-17T00:30:42.505Z,10.50
2022-11-17T00:33:29.800Z,9.68
2022-11-17T00:35:58.215Z,12.60
2022-11-17T00:38:27.991Z,13.25
2022-11-17T00:40:58.555Z,11.45
2022-11-17T00:43:29.322Z,14.85
2022-11-17T00:45:57.717Z,11.93
2022-11-17T00:48:26.099Z,11.18
2022-11-17T00:50:54.499Z,15.40
2022-11-17T00:53:22.879Z,15.50
2022-11-17T00:55:52.721Z,9.55
2022-11-17T00:58:21.136Z,10.60
2022-11-17T01:00:50.318Z,11.52
2022-11-17T01:03:18.694Z,7.95
2022-11-17T01:05:47.090Z,8.30
2022-11-17T01:08:15.475Z,10.73
2022-11-17T01:10:43.872Z,8.68
2022-11-17T01:13:13.637Z,8.30
2022-11-17T01:15:42.046Z,9.75
2022-11-17T01:18:11.035Z,7.60
2022-11-17T01:20:39.468Z,8.95
2022-11-17T01:23:07.850Z,9.23
2022-11-17T01:25:38.352Z,10.13
2022-11-17T01:28:06.767Z,10.88
2022-11-17T01:30:36.565Z,9.88
2022-11-17T01:33:04.987Z,10.18
2022-11-17T01:35:35.693Z,9.80
2022-11-17T01:38:04.079Z,9.52
2022-11-17T01:40:32.494Z,9.60
2022-11-17T01:43:00.886Z,11.32
2022-11-17T01:45:29.468Z,10.95
2022-11-17T01:48:00.831Z,11.13
2022-11-17T01:50:32.056Z,10.73
2022-11-17T01:53:02.188Z,9.98
2022-11-17T01:55:33.118Z,9.73
2022-11-17T01:58:04.816Z,11.93
2022-11-17T02:00:33.362Z,14.10
2022-11-17T02:03:07.063Z,10.57
2022-11-17T02:05:39.218Z,10.77
2022-11-17T02:08:08.706Z,10.38
2022-11-17T02:10:37.900Z,10.90
2022-11-17T02:13:07.997Z,10.88
2022-11-17T02:15:36.414Z,11.13
2022-11-17T02:18:06.617Z,11.40
2022-11-17T02:21:01.847Z,13.30
2022-11-17T02:23:47.869Z,12.02
2022-11-17T02:26:31.125Z,11.40
2022-11-17T02:29:04.056Z,12.47
2022-11-17T02:31:38.844Z,12.07
2022-11-17T02:34:12.816Z,14.00
2022-11-17T02:36:44.525Z,10.32
2022-11-17T02:39:14.797Z,10.85
2022-11-17T02:41:47.424Z,12.23
2022-11-17T02:44:20.303Z,13.20
2022-11-17T02:46:49.526Z,14.63
2022-11-17T02:49:20.961Z,12.23
2022-11-17T02:51:51.179Z,11.95
2022-11-17T02:54:19.869Z,11.88
2022-11-17T02:56:48.329Z,10.93
2022-11-17T02:59:19.838Z,10.80
2022-11-17T03:01:59.358Z,12.93
2022-11-17T03:04:31.779Z,13.70
2022-11-17T03:07:06.085Z,13.68
2022-11-17T03:09:40.274Z,12.15
2022-11-17T03:12:11.678Z,12.30
2022-11-17T03:14:48.248Z,12.60
2022-11-17T03:17:20.473Z,13.25
2022-11-17T03:19:50.009Z,11.02
2022-11-17T03:22:23.248Z,12.45
2022-11-17T03:24:52.867Z,13.38
2022-11-17T03:27:23.124Z,12.45
2022-11-17T03:29:54.469Z,12.57
2022-11-17T03:32:24.044Z,13.10
2022-11-17T03:34:57.203Z,14.48
2022-11-17T03:37:28.412Z,13.23
2022-11-17T03:40:00.453Z,12.15
2022-11-17T03:42:31.022Z,11.65
2022-11-17T03:45:04.088Z,13.13
2022-11-17T03:47:33.932Z,13.88
2022-11-17T03:50:05.839Z,14.23
2022-11-17T03:52:35.040Z,13.48
2022-11-17T03:55:04.023Z,14.05
2022-11-17T03:57:36.899Z,12.93
2022-11-17T04:00:08.232Z,12.47
2022-11-17T04:02:36.738Z,13.85
2022-11-17T04:05:08.053Z,14.52
2022-11-17T04:07:37.241Z,13.88
2022-11-17T04:10:06.504Z,12.43
2022-11-17T04:12:52.520Z,12.70
2022-11-17T04:15:39.868Z,12.52
2022-11-17T04:18:08.304Z,13.25
2022-11-17T04:20:36.991Z,12.85
2022-11-17T04:23:08.493Z,15.57
2022-11-17T04:25:55.339Z,13.18
2022-11-17T04:28:39.983Z,12.90
2022-11-17T04:31:11.253Z,14.68
2022-11-17T04:33:40.309Z,14.73
2022-11-17T04:36:09.954Z,15.68
2022-11-17T04:38:38.709Z,12.90
2022-11-17T04:41:25.673Z,14.05
2022-11-17T04:43:54.397Z,13.13
2022-11-17T04:46:24.650Z,13.77
2022-11-17T04:48:54.221Z,14.32
2022-11-17T04:51:23.075Z,14.60
2022-11-17T04:53:51.909Z,14.68
2022-11-17T04:56:20.344Z,14.00
2022-11-17T04:58:49.194Z,15.75
2022-11-17T05:01:18.740Z,15.10
2022-11-17T05:03:49.093Z,14.32
2022-11-17T05:06:18.264Z,13.95
2022-11-17T05:08:47.009Z,13.88
2022-11-17T05:11:33.532Z,14.27
2022-11-17T05:14:03.862Z,14.18
2022-11-17T05:16:49.810Z,14.75
2022-11-17T05:19:20.885Z,15.13
2022-11-17T05:21:49.341Z,15.70
2022-11-17T05:24:17.098Z,14.40
2022-11-17T05:26:46.531Z,13.82
2022-11-17T05:29:15.705Z,12.00
2022-11-17T05:31:44.121Z,13.35
2022-11-17T05:34:13.530Z,15.50
2022-11-17T05:36:43.531Z,12.65
2022-11-17T05:39:12.056Z,12.52
2022-11-17T05:41:40.430Z,13.07
2022-11-17T05:44:08.850Z,13.38
2022-11-17T05:46:37.328Z,12.70
2022-11-17T05:49:05.957Z,12.85
2022-11-17T05:51:34.338Z,15.15
2022-11-17T05:54:04.146Z,14.20
2022-11-17T05:56:35.571Z,17.75
2022-11-17T05:59:07.720Z,15.57
2022-11-17T06:01:37.165Z,15.68
2022-11-17T06:04:06.945Z,14.80
2022-11-17T06:06:36.007Z,13.63
2022-11-17T06:09:05.968Z,12.85
2022-11-17T06:11:34.328Z,13.75
2022-11-17T06:14:02.770Z,13.63
2022-11-17T06:16:36.311Z,12.60
2022-11-17T06:19:06.106Z,12.82
2022-11-17T06:22:04.400Z,11.40
2022-11-17T06:24:26.074Z,12.05
2022-11-17T06:26:54.523Z,10.95
2022-11-17T06:29:23.005Z,11.65
2022-11-17T06:31:51.483Z,12.63
2022-11-17T06:34:21.118Z,10.82
2022-11-17T06:36:49.512Z,10.88
2022-11-17T06:39:17.958Z,11.00
2022-11-17T06:41:47.976Z,9.63
2022-11-17T06:44:19.158Z,9.98
2022-11-17T06:46:49.176Z,8.63
2022-11-17T06:49:18.068Z,8.77
2022-11-17T06:51:46.448Z,9.43
2022-11-17T06:54:15.540Z,9.63
2022-11-17T06:56:44.239Z,9.52
2022-11-17T06:59:15.967Z,9.13
2022-11-17T07:01:44.530Z,8.55
2022-11-17T07:04:12.937Z,9.15
2022-11-17T07:06:41.333Z,10.35
2022-11-17T07:09:09.864Z,10.38
2022-11-17T07:11:38.245Z,9.32
2022-11-17T07:14:06.650Z,8.63
2022-11-17T07:16:36.412Z,8.88
2022-11-17T07:19:04.877Z,9.00
2022-11-17T07:21:33.276Z,9.23
2022-11-17T07:24:01.758Z,8.20
2022-11-17T07:26:30.251Z,7.18
2022-11-17T07:28:58.944Z,4.95
2022-11-17T07:31:27.331Z,5.18
2022-11-17T07:33:58.826Z,5.95
2022-11-17T07:36:27.210Z,5.50
2022-11-17T07:38:55.591Z,8.18
2022-11-17T07:41:26.119Z,5.78
2022-11-17T07:43:54.535Z,6.60
2022-11-17T07:46:22.902Z,4.80
2022-11-17T07:48:51.324Z,6.25
2022-11-17T07:51:21.289Z,6.68
2022-11-17T07:53:49.709Z,5.50
2022-11-17T07:56:18.276Z,4.72
2022-11-17T07:58:46.715Z,6.47
2022-11-17T08:01:16.267Z,5.35
2022-11-17T08:03:44.943Z,4.97
2022-11-17T08:06:13.694Z,5.55
2022-11-17T08:08:43.476Z,4.63
2022-11-17T08:11:12.745Z,5.22
2022-11-17T08:13:41.785Z,4.60
2022-11-17T08:16:10.936Z,3.50
2022-11-17T08:18:39.842Z,3.83
2022-11-17T08:21:09.348Z,3.70
2022-11-17T08:23:37.888Z,3.38
2022-11-17T08:26:08.185Z,4.75
2022-11-17T08:28:37.092Z,4.15
2022-11-17T08:31:07.069Z,7.38
2022-11-17T08:33:35.956Z,4.65
2022-11-17T08:36:04.907Z,3.90
2022-11-17T08:38:33.632Z,5.95
2022-11-17T08:41:03.962Z,4.57
2022-11-17T08:43:33.780Z,4.45
2022-11-17T08:46:02.960Z,4.32
2022-11-17T08:48:31.689Z,3.28
2022-11-17T08:51:00.315Z,4.03
2022-11-17T08:53:28.676Z,4.35
2022-11-17T08:55:57.116Z,4.20
2022-11-17T08:58:25.517Z,3.88
2022-11-17T09:00:56.852Z,4.60
2022-11-17T09:03:28.255Z,4.72
2022-11-17T09:05:56.747Z,3.97
2022-11-17T09:11:14.503Z,5.07
2022-11-17T09:13:42.975Z,3.75
2022-11-17T09:16:13.356Z,3.55
2022-11-17T09:18:42.234Z,3.22
2022-11-17T09:21:11.839Z,5.63
2022-11-17T09:23:40.384Z,3.40
2022-11-17T09:26:09.463Z,3.70
2022-11-17T09:28:38.025Z,4.72
2022-11-17T09:31:10.630Z,3.90
2022-11-17T09:33:40.420Z,3.92
2022-11-17T09:36:09.025Z,3.78
2022-11-17T09:38:38.430Z,3.90
2022-11-17T09:41:13.669Z,3.95
2022-11-17T09:43:45.010Z,4.32
2022-11-17T09:46:17.116Z,3.78
2022-11-17T09:48:49.529Z,5.35
2022-11-17T09:51:20.221Z,4.38
2022-11-17T09:53:52.843Z,3.70
2022-11-17T09:56:21.447Z,3.72
2022-11-17T09:58:52.282Z,3.85
2022-11-17T10:01:21.919Z,5.15
2022-11-17T10:03:52.075Z,4.63
2022-11-17T10:06:21.805Z,4.82
2022-11-17T10:09:03.672Z,4.55
2022-11-17T10:11:33.581Z,3.58
2022-11-17T10:14:06.298Z,4.38
2022-11-17T10:16:34.785Z,5.85
2022-11-17T10:19:10.509Z,4.40
2022-11-17T10:21:39.577Z,4.18
2022-11-17T10:24:08.051Z,4.90
2022-11-17T10:26:45.455Z,5.85
2022-11-17T10:29:15.300Z,4.57
2022-11-17T10:31:44.649Z,4.95
2022-11-17T10:34:28.325Z,4.97
2022-11-17T10:36:59.303Z,3.50
2022-11-17T10:39:34.849Z,4.10
2022-11-17T10:42:04.209Z,5.40
2022-11-17T10:44:33.702Z,4.10
2022-11-17T10:47:04.035Z,4.80
2022-11-17T10:49:34.917Z,6.25
2022-11-17T10:52:07.457Z,5.03
2022-11-17T10:54:35.807Z,3.65
2022-11-17T10:57:07.668Z,5.30
2022-11-17T10:59:43.808Z,3.85
2022-11-17T11:02:29.348Z,4.78
2022-11-17T11:05:09.155Z,4.18
2022-11-17T11:07:38.129Z,4.80
2022-11-17T11:10:11.960Z,4.28
2022-11-17T11:15:09.826Z,5.10
2022-11-17T11:17:38.198Z,4.35
2022-11-17T11:20:14.588Z,3.50
2022-11-17T11:22:45.742Z,3.55
2022-11-17T11:25:19.357Z,4.03
2022-11-17T11:27:57.330Z,4.20
2022-11-17T11:30:25.709Z,2.80
2022-11-17T11:32:59.940Z,4.00
2022-11-17T11:35:37.852Z,5.75
2022-11-17T11:38:12.994Z,4.00
2022-11-17T11:40:42.530Z,3.65
2022-11-17T11:43:16.943Z,3.03
2022-11-17T11:45:49.374Z,4.53
2022-11-17T11:48:18.735Z,5.78
2022-11-17T11:50:56.171Z,4.03
2022-11-17T11:53:28.760Z,4.03
2022-11-17T11:56:03.109Z,5.30
2022-11-17T11:58:31.475Z,3.03
2022-11-17T12:01:01.935Z,4.50
2022-11-17T12:03:35.624Z,3.22
2022-11-17T12:09:04.014Z,5.75
2022-11-17T12:11:50.627Z,5.32
2022-11-17T12:14:19.535Z,3.67
2022-11-17T12:16:49.526Z,3.67
2022-11-17T12:19:36.755Z,6.28
2022-11-17T12:22:05.276Z,5.03
2022-11-17T12:24:39.775Z,2.80
2022-11-17T12:27:26.613Z,3.42
2022-11-17T12:29:54.994Z,3.90
2022-11-17T12:32:38.191Z,2.45
2022-11-17T12:35:26.605Z,3.40
2022-11-17T12:38:24.893Z,1.42
2022-11-17T12:40:55.051Z,3.90
2022-11-17T12:43:24.735Z,1.50
2022-11-17T12:46:01.001Z,4.25
2022-11-17T12:48:34.309Z,1.52
2022-11-17T12:51:06.314Z,1.77
2022-11-17T12:53:50.196Z,1.20
2022-11-17T12:56:24.918Z,2.55
2022-11-17T12:58:58.500Z,2.20
2022-11-17T13:01:30.616Z,1.33
2022-11-17T13:04:01.282Z,0.95
2022-11-17T13:06:37.078Z,2.83
2022-11-17T13:09:07.321Z,1.58
2022-11-17T13:11:37.211Z,1.02
2022-11-17T13:14:09.903Z,1.45
2022-11-17T13:16:39.363Z,2.33
2022-11-17T13:19:22.574Z,1.95
2022-11-17T13:21:50.929Z,2.53
2022-11-17T13:24:30.302Z,3.83
2022-11-17T13:27:01.272Z,5.22
2022-11-17T13:29:29.933Z,3.20
2022-11-17T13:32:23.172Z,2.50
2022-11-17T13:34:56.574Z,1.95
2022-11-17T13:37:25.690Z,3.35
2022-11-17T13:40:03.550Z,1.73
2022-11-17T13:43:08.317Z,3.75
2022-11-17T13:46:20.823Z,3.58
2022-11-17T13:48:49.653Z,3.08
2022-11-17T13:51:38.600Z,4.43
2022-11-17T13:54:08.636Z,4.50
2022-11-17T13:56:38.050Z,3.25
2022-11-17T13:59:19.051Z,2.20
2022-11-17T14:01:47.487Z,2.25
2022-11-17T14:04:20.414Z,2.10
2022-11-17T14:06:59.322Z,3.20
2022-11-17T14:09:28.670Z,7.13
2022-11-17T14:11:57.528Z,3.10
2022-11-17T14:14:32.804Z,3.88
2022-11-17T14:17:11.063Z,3.00
2022-11-17T14:19:39.410Z,2.75
2022-11-17T14:22:30.871Z,5.68
2022-11-17T14:24:59.936Z,9.52
2022-11-17T14:27:38.062Z,4.85
2022-11-17T14:30:08.485Z,51.03
2022-11-17T14:32:36.864Z,15.95
2022-11-17T14:35:05.254Z,15.55
2022-11-17T14:37:34.174Z,10.88
2022-11-17T14:40:04.301Z,5.70
2022-11-17T14:42:35.964Z,5.65
2022-11-17T14:45:04.959Z,3.60
2022-11-17T14:47:34.693Z,2.05
2022-11-17T14:50:03.583Z,2.83
2022-11-17T14:52:32.155Z,2.65
2022-11-17T14:55:00.792Z,3.67
2022-11-17T14:57:29.195Z,3.08
2022-11-17T14:59:57.527Z,5.00
2022-11-17T15:02:25.859Z,4.32
2022-11-17T15:04:56.169Z,5.63
2022-11-17T15:07:25.246Z,5.57
2022-11-17T15:09:53.670Z,3.42
2022-11-17T15:12:22.215Z,5.47
2022-11-17T15:14:50.743Z,5.13
2022-11-17T15:17:19.123Z,6.18
2022-11-17T15:19:47.461Z,7.75
2022-11-17T15:22:17.223Z,6.57
2022-11-17T15:24:45.699Z,6.00
2022-11-17T15:27:14.116Z,24.17
2022-11-17T15:29:42.530Z,27.05
2022-11-17T15:32:10.895Z,7.70
2022-11-17T15:34:39.265Z,5.30
2022-11-17T15:37:09.965Z,8.63
2022-11-17T15:39:39.801Z,7.85
2022-11-17T15:42:08.129Z,10.45
2022-11-17T15:44:36.447Z,10.75
2022-11-17T15:47:04.775Z,5.88
2022-11-17T15:49:33.133Z,7.32
2022-11-17T15:52:01.505Z,9.57
2022-11-17T15:54:29.848Z,17.00
2022-11-17T15:57:01.396Z,9.30
2022-11-17T15:59:29.864Z,6.05
2022-11-17T16:01:58.198Z,5.82
2022-11-17T16:04:29.630Z,8.68
2022-11-17T16:06:58.517Z,10.00
2022-11-17T16:09:28.801Z,7.25
2022-11-17T16:11:57.282Z,6.82
2022-11-17T16:14:27.014Z,6.53
2022-11-17T16:16:55.311Z,3.75
2022-11-17T16:19:23.692Z,3.55
2022-11-17T16:21:52.118Z,3.40
2022-11-17T16:24:20.487Z,4.10
2022-11-17T16:26:48.820Z,2.47
2022-11-17T16:29:17.555Z,4.75
2022-11-17T16:31:47.461Z,5.03
2022-11-17T16:34:17.994Z,3.70
2022-11-17T16:37:07.636Z,5.30
2022-11-17T16:39:35.965Z,3.25
2022-11-17T16:42:04.346Z,6.57
2022-11-17T16:44:32.737Z,3.95
2022-11-17T16:47:02.480Z,5.00
2022-11-17T16:49:32.704Z,3.85
2022-11-17T16:52:01.025Z,3.83
2022-11-17T16:54:29.407Z,4.68
2022-11-17T16:56:57.811Z,2.67
2022-11-17T16:59:26.192Z,3.92
2022-11-17T17:01:54.541Z,5.38
2022-11-17T17:04:24.255Z,4.93
2022-11-17T17:06:52.651Z,3.67
2022-11-17T17:09:27.493Z,4.88
2022-11-17T17:11:56.301Z,6.55
2022-11-17T17:14:24.882Z,4.18
2022-11-17T17:16:53.284Z,5.05
2022-11-17T17:19:21.662Z,4.47
2022-11-17T17:21:51.576Z,6.28
2022-11-17T17:24:19.990Z,7.05
2022-11-17T17:26:48.313Z,8.55
2022-11-17T17:29:17.004Z,6.13
2022-11-17T17:31:45.607Z,4.65
2022-11-17T17:34:14.674Z,9.98
2022-11-17T17:36:43.103Z,19.38
2022-11-17T17:39:15.656Z,16.80
2022-11-17T17:41:45.842Z,14.93
2022-11-17T17:44:16.010Z,11.77
2022-11-17T17:46:44.419Z,12.20
2022-11-17T17:49:13.061Z,13.43
2022-11-17T17:51:43.548Z,18.02
2022-11-17T17:54:16.799Z,21.08
2022-11-17T17:56:45.179Z,9.05
2022-11-17T17:59:14.594Z,7.95
2022-11-17T18:01:45.952Z,9.65
2022-11-17T18:04:16.252Z,4.95
2022-11-17T18:06:47.509Z,3.58
2022-11-17T18:09:19.508Z,4.53
2022-11-17T18:11:49.870Z,4.70
2022-11-17T18:14:20.500Z,6.70
2022-11-17T18:16:49.052Z,5.45
2022-11-17T18:19:18.254Z,6.15
2022-11-17T18:21:46.899Z,5.43
2022-11-17T18:24:16.833Z,4.05
2022-11-17T18:26:45.147Z,5.68
2022-11-17T18:29:15.404Z,6.82
2022-11-17T18:31:46.650Z,6.88
2022-11-17T18:34:16.258Z,5.88
2022-11-17T18:36:44.650Z,5.65
2022-11-17T18:39:13.022Z,5.07
2022-11-17T18:41:42.731Z,6.18
2022-11-17T18:44:13.171Z,4.88
2022-11-17T18:46:41.503Z,3.40
2022-11-17T18:49:09.824Z,4.18
2022-11-17T18:51:38.144Z,7.18
2022-11-17T18:54:07.845Z,5.55
2022-11-17T18:56:36.883Z,6.10
2022-11-17T18:59:11.283Z,2.72
2022-11-17T19:01:40.539Z,3.50
2022-11-17T19:04:09.020Z,4.40
2022-11-17T19:06:37.469Z,6.50
2022-11-17T19:09:06.834Z,5.32
2022-11-17T19:11:35.209Z,3.80
2022-11-17T19:14:05.183Z,4.65
2022-11-17T19:16:42.630Z,5.75
2022-11-17T19:19:13.140Z,7.38
2022-11-17T19:21:42.093Z,5.00
2022-11-17T19:24:10.816Z,6.03
2022-11-17T19:26:39.296Z,5.80
2022-11-17T19:29:16.535Z,8.30
2022-11-17T19:31:46.773Z,6.88
2022-11-17T19:34:15.257Z,7.00
2022-11-17T19:36:44.500Z,9.82
2022-11-17T19:39:17.071Z,10.10
2022-11-17T19:41:47.684Z,8.52
2022-11-17T19:44:16.322Z,9.40
2022-11-17T19:46:47.193Z,6.72
2022-11-17T19:49:17.208Z,4.47
2022-11-17T19:51:45.831Z,4.63
2022-11-17T19:54:14.800Z,4.30
2022-11-17T19:56:43.290Z,5.53
2022-11-17T19:59:16.110Z,5.75
2022-11-17T20:01:45.672Z,5.72
2022-11-17T20:04:14.283Z,5.72
2022-11-17T20:06:44.638Z,5.78
2022-11-17T20:09:14.049Z,3.28
2022-11-17T20:11:42.914Z,4.90
2022-11-17T20:14:11.448Z,4.10
2022-11-17T20:16:39.815Z,5.25
2022-11-17T20:19:08.421Z,4.65
2022-11-17T20:21:36.771Z,3.95
2022-11-17T20:24:06.628Z,4.57
2022-11-17T20:26:36.199Z,3.55
2022-11-17T20:29:04.567Z,6.88
2022-11-17T20:31:34.078Z,4.65
2022-11-17T20:34:02.882Z,5.38
2022-11-17T20:36:32.129Z,4.03
2022-11-17T20:39:01.524Z,4.60
2022-11-17T20:41:31.402Z,4.70
2022-11-17T20:44:00.259Z,7.90
2022-11-17T20:46:28.908Z,4.88
2022-11-17T20:48:57.359Z,7.75
2022-11-17T20:51:26.262Z,7.40
2022-11-17T20:53:54.711Z,4.97
2022-11-17T20:56:23.065Z,5.95
2022-11-17T20:58:52.784Z,8.90
2022-11-17T21:01:23.088Z,6.75
2022-11-17T21:03:51.745Z,7.18
2022-11-17T21:06:22.915Z,8.98
2022-11-17T21:08:51.307Z,9.18
2022-11-17T21:11:34.172Z,6.63
2022-11-17T21:14:04.338Z,7.05
2022-11-17T21:16:32.721Z,4.68
2022-11-17T21:19:01.089Z,5.32
2022-11-17T21:21:29.510Z,5.38
2022-11-17T21:23:57.978Z,5.88
2022-11-17T21:26:27.729Z,6.75
2022-11-17T21:28:59.339Z,4.63
2022-11-17T21:31:32.815Z,2.85
2022-11-17T21:34:02.246Z,3.67
2022-11-17T21:36:31.488Z,2.58
2022-11-17T21:39:00.210Z,2.80
2022-11-17T21:41:29.541Z,3.05
2022-11-17T21:44:00.056Z,2.35
2022-11-17T21:46:30.065Z,2.40
2022-11-17T21:49:00.515Z,4.28
2022-11-17T21:51:29.529Z,3.08
2022-11-17T21:53:58.647Z,2.60
2022-11-17T21:56:27.353Z,4.32
2022-11-17T21:58:56.672Z,3.63
2022-11-17T22:01:25.471Z,2.60
2022-11-17T22:03:53.998Z,3.65
2022-11-17T22:06:24.657Z,3.83
2022-11-17T22:08:53.248Z,3.17
2022-11-17T22:11:35.413Z,2.13
2022-11-17T22:14:08.099Z,4.20
2022-11-17T22:16:37.133Z,3.20
2022-11-17T22:19:05.905Z,6.28
2022-11-17T22:21:36.561Z,3.53
2022-11-17T22:24:05.049Z,4.07
2022-11-17T22:26:35.781Z,5.45
2022-11-17T22:29:04.206Z,4.57
2022-11-17T22:31:32.903Z,3.63
2022-11-17T22:34:01.315Z,4.88
2022-11-17T22:36:29.719Z,3.13
2022-11-17T22:38:59.508Z,2.10
2022-11-17T22:41:27.911Z,2.50
2022-11-17T22:43:56.994Z,3.38
2022-11-17T22:46:26.348Z,3.40
2022-11-17T22:48:54.864Z,5.13
2022-11-17T22:51:41.198Z,2.45
2022-11-17T22:54:11.140Z,2.75
2022-11-17T22:56:39.517Z,4.28
2022-11-17T22:59:07.932Z,2.58
2022-11-17T23:01:36.328Z,3.28
2022-11-17T23:04:04.874Z,3.35
2022-11-17T23:06:33.317Z,4.38
2022-11-17T23:09:01.723Z,4.57
2022-11-17T23:11:38.758Z,3.33
2022-11-17T23:14:07.893Z,5.03
2022-11-17T23:16:36.773Z,4.35
2022-11-17T23:19:05.685Z,4.82
2022-11-17T23:21:34.035Z,4.43
2022-11-17T23:24:02.507Z,5.18
2022-11-17T23:26:32.274Z,7.65
2022-11-17T23:29:00.673Z,4.07
2022-11-17T23:31:29.142Z,4.38
2022-11-17T23:33:57.577Z,4.35
2022-11-17T23:36:26.234Z,3.75
2022-11-17T23:38:56.238Z,3.38
2022-11-17T23:41:24.662Z,2.20
2022-11-17T23:43:55.477Z,3.95
2022-11-17T23:46:25.241Z,2.28
2022-11-17T23:48:53.875Z,4.28
2022-11-17T23:51:23.128Z,3.80
2022-11-17T23:53:51.640Z,2.97
2022-11-17T23:56:21.002Z,4.55
2022-11-17T23:58:49.385Z,2.10
